Warrensburg, Missouri
Current Conditions -  °F | °C
As of 4:35 PM on Tuesday 21 Oct 2014 (Local Time) from KRCM Reporting Station
Haze Haze  
Wind Chill: 72°   Ceiling: 500
Heat Index: 72°   Visibility: 0.75mi
Dew Point: 41°   Wind: 0mph
Humidity: 33%   Direction: NA
Pressure: 30.08"   Gusts: NA
Location:  38.77°N, 93.74°W
Report Text: KRCM 212135Z AUTO 00000KT 3/4SM HZ VV005 22/05 A3008 RMK AO2 VIS 1/4V5
Loading
Personal Weather Stations






























Interactive Weather Map New forecast layout! Learn more

10-Day Weather Forecast

Advertisements
Track Severe Weather on mobile